createdAt,value
2018-03-22T00:00:56.804Z,3.97
2018-03-22T00:03:24.314Z,3.67
2018-03-22T00:05:52.062Z,3.80
2018-03-22T00:08:19.566Z,3.55
2018-03-22T00:10:47.070Z,3.70
2018-03-22T00:13:14.826Z,3.58
2018-03-22T00:15:42.478Z,3.58
2018-03-22T00:18:10.007Z,3.60
2018-03-22T00:20:37.497Z,3.30
2018-03-22T00:23:04.998Z,3.85
2018-03-22T00:25:32.747Z,3.55
2018-03-22T00:28:00.242Z,3.78
2018-03-22T00:30:27.733Z,3.42
2018-03-22T00:32:55.658Z,3.03
2018-03-22T00:35:23.314Z,3.62
2018-03-22T00:37:50.826Z,3.80
2018-03-22T00:40:18.313Z,3.20
2018-03-22T00:42:46.122Z,3.15
2018-03-22T00:45:13.635Z,3.40
2018-03-22T00:47:41.122Z,3.60
2018-03-22T00:50:08.691Z,3.45
2018-03-22T00:52:36.182Z,3.50
2018-03-22T00:55:03.807Z,3.45
2018-03-22T00:57:31.452Z,3.40
2018-03-22T00:59:59.063Z,3.72
2018-03-22T01:02:26.762Z,3.12
2018-03-22T01:04:54.328Z,3.45
2018-03-22T01:07:21.838Z,3.60
2018-03-22T01:09:49.346Z,3.60
2018-03-22T01:12:16.856Z,3.90
2018-03-22T01:14:44.635Z,3.45
2018-03-22T01:17:12.207Z,3.25
2018-03-22T01:19:39.701Z,3.17
2018-03-22T01:22:07.214Z,3.75
2018-03-22T01:24:34.708Z,3.12
2018-03-22T01:27:02.202Z,3.50
2018-03-22T01:29:29.953Z,3.75
2018-03-22T01:31:57.479Z,3.33
2018-03-22T01:34:25.001Z,3.40
2018-03-22T01:36:52.729Z,3.35
2018-03-22T01:39:20.387Z,3.47
2018-03-22T01:41:48.039Z,3.10
2018-03-22T01:44:15.533Z,3.22
2018-03-22T01:46:43.299Z,3.75
2018-03-22T01:49:10.951Z,3.17
2018-03-22T01:51:38.651Z,3.37
2018-03-22T01:54:06.305Z,3.60
2018-03-22T01:56:33.803Z,3.25
2018-03-22T01:59:01.293Z,3.00
2018-03-22T02:01:28.868Z,3.30
2018-03-22T02:03:56.527Z,3.25
2018-03-22T02:06:24.042Z,3.12
2018-03-22T02:08:51.533Z,3.12
2018-03-22T02:11:19.029Z,3.72
2018-03-22T02:13:46.746Z,3.28
2018-03-22T02:16:14.551Z,3.10
2018-03-22T02:18:42.251Z,3.33
2018-03-22T02:21:10.098Z,3.40
2018-03-22T02:23:37.905Z,3.10
2018-03-22T02:26:05.392Z,3.47
2018-03-22T02:28:33.062Z,3.28
2018-03-22T02:31:00.630Z,3.03
2018-03-22T02:33:28.187Z,3.62
2018-03-22T02:35:55.834Z,2.95
2018-03-22T02:38:23.334Z,3.65
2018-03-22T02:40:51.086Z,3.42
2018-03-22T02:43:18.782Z,3.45
2018-03-22T02:45:46.261Z,3.28
2018-03-22T02:48:13.847Z,3.72
2018-03-22T02:50:41.747Z,3.15
2018-03-22T02:53:09.265Z,3.22
2018-03-22T02:55:36.809Z,3.83
2018-03-22T02:58:04.459Z,2.90
2018-03-22T03:00:31.945Z,3.65
2018-03-22T03:02:59.573Z,3.58
2018-03-22T03:05:27.115Z,3.40
2018-03-22T03:07:54.729Z,3.33
2018-03-22T03:10:22.337Z,3.50
2018-03-22T03:12:50.187Z,3.47
2018-03-22T03:15:18.229Z,3.35
2018-03-22T03:17:45.934Z,2.95
2018-03-22T03:20:13.427Z,3.15
2018-03-22T03:22:41.192Z,3.08
2018-03-22T03:25:08.847Z,3.17
2018-03-22T03:27:36.332Z,2.78
2018-03-22T03:30:03.873Z,3.15
2018-03-22T03:32:31.463Z,3.58
2018-03-22T03:34:59.113Z,4.18
2018-03-22T03:37:26.646Z,3.47
2018-03-22T03:39:54.134Z,3.45
2018-03-22T03:42:21.630Z,3.22
2018-03-22T03:44:49.128Z,3.12
2018-03-22T03:47:16.747Z,3.90
2018-03-22T03:49:44.337Z,3.22
2018-03-22T03:52:11.854Z,3.33
2018-03-22T03:54:39.511Z,3.20
2018-03-22T03:57:07.209Z,3.22
2018-03-22T03:59:34.816Z,3.80
2018-03-22T04:02:02.318Z,3.60
2018-03-22T04:04:30.169Z,3.75
2018-03-22T04:06:57.821Z,3.35
2018-03-22T04:09:25.674Z,3.42
2018-03-22T04:11:53.281Z,3.58
2018-03-22T04:14:20.773Z,3.37
2018-03-22T04:16:48.980Z,3.10
2018-03-22T04:19:16.687Z,3.40
2018-03-22T04:21:44.170Z,3.25
2018-03-22T04:24:11.654Z,2.95
2018-03-22T04:26:39.162Z,3.33
2018-03-22T04:29:06.646Z,3.08
2018-03-22T04:31:34.509Z,3.62
2018-03-22T04:34:01.985Z,3.70
2018-03-22T04:36:29.623Z,3.25
2018-03-22T04:38:57.109Z,3.00
2018-03-22T04:41:25.122Z,3.08
2018-03-22T04:43:52.776Z,3.75
2018-03-22T04:46:20.622Z,3.65
2018-03-22T04:48:48.287Z,3.30
2018-03-22T04:51:15.978Z,3.10
2018-03-22T04:53:43.586Z,3.28
2018-03-22T04:56:11.064Z,4.07
2018-03-22T04:58:38.742Z,2.78
2018-03-22T05:01:06.545Z,3.28
2018-03-22T05:03:34.037Z,3.62
2018-03-22T05:06:01.704Z,3.47
2018-03-22T05:08:29.552Z,4.00
2018-03-22T05:10:57.053Z,3.40
2018-03-22T05:13:24.661Z,3.15
2018-03-22T05:15:52.142Z,3.30
2018-03-22T05:18:19.726Z,3.35
2018-03-22T05:20:47.424Z,3.35
2018-03-22T05:23:15.232Z,4.05
2018-03-22T05:25:42.931Z,3.22
2018-03-22T05:28:10.582Z,3.90
2018-03-22T05:30:38.237Z,4.03
2018-03-22T05:33:05.736Z,3.83
2018-03-22T05:35:33.500Z,3.83
2018-03-22T05:38:01.028Z,3.22
2018-03-22T05:40:28.538Z,3.08
2018-03-22T05:42:56.042Z,3.78
2018-03-22T05:45:23.570Z,3.20
2018-03-22T05:47:51.061Z,4.05
2018-03-22T05:50:18.559Z,3.60
2018-03-22T05:52:46.048Z,3.47
2018-03-22T05:55:13.536Z,3.67
2018-03-22T05:57:41.251Z,3.70
2018-03-22T06:00:08.736Z,3.47
2018-03-22T06:02:36.306Z,4.15
2018-03-22T06:05:03.854Z,3.65
2018-03-22T06:07:31.338Z,3.72
2018-03-22T06:09:58.828Z,3.95
2018-03-22T06:12:26.310Z,3.90
2018-03-22T06:14:53.801Z,3.67
2018-03-22T06:17:21.352Z,3.62
2018-03-22T06:19:48.854Z,4.03
2018-03-22T06:22:16.346Z,3.90
2018-03-22T06:24:43.868Z,3.67
2018-03-22T06:27:11.359Z,3.75
2018-03-22T06:29:38.844Z,3.83
2018-03-22T06:32:06.347Z,4.05
2018-03-22T06:34:33.849Z,3.55
2018-03-22T06:37:01.354Z,4.18
2018-03-22T06:39:28.862Z,4.00
2018-03-22T06:41:56.350Z,4.18
2018-03-22T06:44:23.833Z,3.53
2018-03-22T06:46:51.319Z,4.07
2018-03-22T06:49:18.850Z,3.80
2018-03-22T06:51:46.387Z,3.37
2018-03-22T06:54:13.865Z,3.47
2018-03-22T06:56:41.376Z,3.45
2018-03-22T06:59:08.890Z,3.30
2018-03-22T07:01:36.386Z,3.67
2018-03-22T07:04:03.884Z,3.60
2018-03-22T07:06:31.369Z,4.07
2018-03-22T07:08:58.862Z,3.67
2018-03-22T07:11:26.361Z,3.40
2018-03-22T07:13:53.845Z,3.03
2018-03-22T07:16:21.325Z,3.92
2018-03-22T07:18:48.890Z,3.22
2018-03-22T07:21:16.697Z,3.17
2018-03-22T07:23:44.232Z,3.20
2018-03-22T07:26:11.818Z,3.70
2018-03-22T07:28:39.660Z,3.45
2018-03-22T07:31:07.312Z,3.60
2018-03-22T07:33:34.969Z,3.53
2018-03-22T07:36:02.671Z,3.60
2018-03-22T07:38:30.161Z,3.70
2018-03-22T07:40:57.665Z,3.37
2018-03-22T07:43:30.792Z,3.62
2018-03-22T07:45:58.589Z,3.87
2018-03-22T07:48:26.089Z,3.78
2018-03-22T07:50:53.581Z,3.53
2018-03-22T07:53:21.503Z,3.80
2018-03-22T07:55:49.202Z,3.75
2018-03-22T07:58:16.712Z,5.25
2018-03-22T08:00:44.212Z,3.80
2018-03-22T08:03:15.655Z,3.47
2018-03-22T08:05:43.422Z,3.60
2018-03-22T08:08:10.879Z,3.73
2018-03-22T08:10:38.370Z,3.50
2018-03-22T08:13:05.924Z,3.47
2018-03-22T08:15:33.412Z,3.93
2018-03-22T08:18:00.888Z,3.70
2018-03-22T08:20:28.435Z,3.20
2018-03-22T08:22:56.026Z,3.83
2018-03-22T08:25:23.598Z,3.57
2018-03-22T08:27:51.403Z,3.93
2018-03-22T08:30:19.254Z,3.97
2018-03-22T08:32:46.735Z,3.53
2018-03-22T08:35:14.260Z,3.70
2018-03-22T08:37:41.736Z,3.77
2018-03-22T08:40:09.214Z,3.70
2018-03-22T08:42:36.702Z,3.90
2018-03-22T08:45:04.291Z,3.40
2018-03-22T08:47:31.782Z,4.40
2018-03-22T08:49:59.331Z,4.23
2018-03-22T08:52:26.817Z,3.67
2018-03-22T08:54:54.293Z,3.47
2018-03-22T08:57:22.066Z,4.03
2018-03-22T08:59:49.646Z,3.20
2018-03-22T09:02:17.125Z,3.37
2018-03-22T09:04:44.606Z,3.70
2018-03-22T09:07:12.098Z,3.73
2018-03-22T09:09:39.579Z,4.43
2018-03-22T09:12:07.070Z,4.07
2018-03-22T09:14:34.549Z,3.33
2018-03-22T09:17:02.033Z,3.63
2018-03-22T09:19:29.515Z,3.47
2018-03-22T09:21:57.045Z,3.83
2018-03-22T09:24:24.558Z,4.00
2018-03-22T09:26:57.573Z,3.67
2018-03-22T09:29:25.922Z,2.97
2018-03-22T09:31:53.569Z,3.43
2018-03-22T09:34:21.050Z,3.53
2018-03-22T09:36:48.521Z,3.97
2018-03-22T09:39:16.014Z,3.90
2018-03-22T09:41:43.501Z,3.67
2018-03-22T09:44:11.049Z,3.10
2018-03-22T09:46:38.522Z,3.67
2018-03-22T09:49:06.034Z,4.10
2018-03-22T09:51:33.513Z,3.53
2018-03-22T09:54:01.050Z,3.40
2018-03-22T09:56:28.614Z,3.43
2018-03-22T09:58:56.113Z,3.60
2018-03-22T10:01:23.650Z,3.63
2018-03-22T10:03:51.122Z,3.53
2018-03-22T10:06:18.603Z,4.10
2018-03-22T10:08:46.072Z,3.53
2018-03-22T10:11:13.556Z,3.50
2018-03-22T10:13:41.069Z,3.60
2018-03-22T10:16:08.606Z,4.67
2018-03-22T10:18:36.082Z,4.40
2018-03-22T10:21:03.569Z,4.33
2018-03-22T10:23:31.042Z,3.97
2018-03-22T10:25:58.520Z,4.87
2018-03-22T10:28:26.004Z,4.57
2018-03-22T10:30:53.484Z,4.10
2018-03-22T10:33:21.557Z,5.40
2018-03-22T10:35:49.036Z,5.03
2018-03-22T10:38:16.532Z,4.90
2018-03-22T10:40:44.020Z,5.20
2018-03-22T10:43:11.521Z,5.40
2018-03-22T10:45:39.011Z,5.70
2018-03-22T10:48:06.505Z,5.20
2018-03-22T10:50:34.005Z,5.23
2018-03-22T10:53:01.489Z,5.23
2018-03-22T10:55:29.006Z,5.23
2018-03-22T10:57:56.499Z,5.40
2018-03-22T11:00:29.758Z,4.83
2018-03-22T11:02:57.308Z,4.90
2018-03-22T11:05:24.858Z,5.30
2018-03-22T11:07:52.359Z,4.90
2018-03-22T11:10:19.861Z,5.67
2018-03-22T11:12:47.344Z,6.40
2018-03-22T11:15:14.870Z,5.63
2018-03-22T11:17:42.356Z,6.23
2018-03-22T11:20:09.838Z,5.30
2018-03-22T11:22:37.338Z,6.07
2018-03-22T11:25:04.814Z,5.50
2018-03-22T11:27:32.307Z,5.77
2018-03-22T11:29:59.797Z,6.13
2018-03-22T11:32:27.362Z,6.13
2018-03-22T11:34:54.839Z,5.83
2018-03-22T11:37:22.842Z,5.23
2018-03-22T11:39:50.346Z,5.17
2018-03-22T11:42:17.847Z,6.07
2018-03-22T11:44:45.368Z,6.13
2018-03-22T11:47:13.028Z,6.03
2018-03-22T11:49:40.512Z,5.93
2018-03-22T11:52:08.025Z,5.43
2018-03-22T11:54:35.517Z,5.70
2018-03-22T11:57:03.050Z,5.80
2018-03-22T11:59:30.532Z,6.40
2018-03-22T12:01:58.105Z,6.27
2018-03-22T12:04:25.593Z,5.83
2018-03-22T12:06:53.078Z,7.37
2018-03-22T12:09:21.233Z,6.40
2018-03-22T12:11:48.725Z,6.60
2018-03-22T12:14:16.273Z,6.93
2018-03-22T12:16:43.765Z,7.10
2018-03-22T12:19:11.255Z,6.20
2018-03-22T12:21:38.767Z,6.80
2018-03-22T12:24:06.529Z,8.57
2018-03-22T12:26:34.071Z,7.30
2018-03-22T12:29:01.565Z,6.90
2018-03-22T12:31:29.051Z,7.43
2018-03-22T12:33:56.543Z,7.23
2018-03-22T12:36:24.014Z,7.50
2018-03-22T12:38:51.512Z,7.93
2018-03-22T12:41:19.161Z,8.00
2018-03-22T12:43:46.669Z,7.70
2018-03-22T12:46:14.157Z,8.00
2018-03-22T12:48:41.657Z,7.70
2018-03-22T12:51:09.158Z,7.60
2018-03-22T12:53:36.637Z,8.20
2018-03-22T12:56:04.150Z,7.17
2018-03-22T12:58:31.654Z,8.07
2018-03-22T13:00:59.138Z,8.23
2018-03-22T13:03:26.617Z,6.97
2018-03-22T13:05:54.106Z,8.77
2018-03-22T13:08:21.590Z,8.00
2018-03-22T13:10:49.077Z,7.73
2018-03-22T13:13:16.726Z,8.33
2018-03-22T13:15:44.243Z,7.87
2018-03-22T13:18:11.724Z,8.00
2018-03-22T13:20:39.241Z,8.73
2018-03-22T13:23:06.744Z,7.47
2018-03-22T13:25:34.248Z,8.30
2018-03-22T13:28:01.778Z,7.27
2018-03-22T13:30:29.347Z,8.47
2018-03-22T13:32:57.758Z,8.10
2018-03-22T13:35:25.259Z,7.50
2018-03-22T13:37:52.738Z,7.83
2018-03-22T13:40:20.230Z,7.93
2018-03-22T13:42:47.760Z,7.83
2018-03-22T13:45:15.290Z,7.90
2018-03-22T13:47:42.780Z,7.90
2018-03-22T13:50:10.265Z,7.87
2018-03-22T13:52:37.747Z,7.80
2018-03-22T13:55:05.233Z,8.87
2018-03-22T13:57:32.735Z,8.07
2018-03-22T14:00:00.217Z,8.67
2018-03-22T14:02:27.714Z,8.73
2018-03-22T14:04:55.224Z,8.67
2018-03-22T14:07:22.698Z,7.77
2018-03-22T14:09:50.235Z,8.10
2018-03-22T14:12:17.741Z,8.23
2018-03-22T14:14:45.237Z,8.27
2018-03-22T14:17:12.791Z,9.07
2018-03-22T14:19:40.312Z,7.97
2018-03-22T14:22:07.807Z,7.60
2018-03-22T14:24:35.291Z,8.77
2018-03-22T14:27:02.797Z,8.30
2018-03-22T14:29:30.345Z,7.80
2018-03-22T14:31:57.837Z,11.33
2018-03-22T14:34:25.338Z,9.77
2018-03-22T14:36:52.854Z,8.90
2018-03-22T14:39:20.338Z,7.87
2018-03-22T14:41:47.818Z,7.70
2018-03-22T14:44:15.324Z,8.23
2018-03-22T14:46:42.814Z,7.70
2018-03-22T14:49:10.359Z,7.80
2018-03-22T14:51:37.876Z,10.33
2018-03-22T14:54:05.364Z,7.83
2018-03-22T14:56:32.901Z,8.33
2018-03-22T14:59:00.420Z,8.40
2018-03-22T15:01:27.959Z,7.80
2018-03-22T15:03:55.441Z,7.70
2018-03-22T15:06:22.948Z,8.10
2018-03-22T15:08:50.434Z,7.67
2018-03-22T15:11:17.909Z,7.80
2018-03-22T15:13:45.418Z,7.43
2018-03-22T15:16:12.901Z,7.63
2018-03-22T15:18:40.386Z,8.03
2018-03-22T15:21:08.573Z,7.53
2018-03-22T15:23:36.121Z,7.90
2018-03-22T15:26:03.617Z,8.17
2018-03-22T15:28:31.110Z,8.07
2018-03-22T15:30:58.707Z,7.00
2018-03-22T15:33:26.186Z,7.30
2018-03-22T15:35:53.676Z,7.67
2018-03-22T15:38:21.174Z,7.27
2018-03-22T15:40:48.674Z,7.43
2018-03-22T15:43:16.206Z,6.93
2018-03-22T15:45:43.698Z,7.87
2018-03-22T15:48:11.202Z,7.57
2018-03-22T15:50:38.702Z,7.17
2018-03-22T15:53:06.349Z,7.37
2018-03-22T15:55:33.827Z,6.20
2018-03-22T15:58:01.312Z,6.40
2018-03-22T16:00:28.799Z,7.53
2018-03-22T16:02:56.286Z,7.57
2018-03-22T16:05:23.766Z,6.90
2018-03-22T16:07:51.268Z,6.53
2018-03-22T16:10:18.760Z,7.57
2018-03-22T16:12:46.243Z,7.10
2018-03-22T16:15:13.733Z,6.90
2018-03-22T16:17:41.224Z,7.17
2018-03-22T16:20:08.713Z,6.70
2018-03-22T16:22:36.201Z,7.07
2018-03-22T16:25:03.856Z,7.00
2018-03-22T16:27:31.342Z,6.17
2018-03-22T16:29:58.829Z,6.00
2018-03-22T16:32:26.314Z,6.77
2018-03-22T16:34:53.826Z,6.20
2018-03-22T16:37:21.333Z,6.23
2018-03-22T16:39:48.858Z,6.37
2018-03-22T16:42:16.346Z,6.23
2018-03-22T16:44:43.953Z,6.30
2018-03-22T16:47:12.395Z,5.77
2018-03-22T16:49:39.990Z,5.83
2018-03-22T16:52:07.562Z,6.57
2018-03-22T16:54:35.049Z,6.20
2018-03-22T16:57:02.585Z,6.30
2018-03-22T16:59:30.061Z,6.40
2018-03-22T17:01:57.551Z,6.83
2018-03-22T17:04:25.069Z,6.30
2018-03-22T17:06:52.704Z,6.70
2018-03-22T17:09:20.331Z,5.63
2018-03-22T17:11:48.040Z,5.90
2018-03-22T17:14:15.851Z,6.07
2018-03-22T17:16:43.684Z,5.63
2018-03-22T17:19:11.517Z,5.83
2018-03-22T17:21:39.345Z,6.23
2018-03-22T17:24:07.193Z,6.63
2018-03-22T17:26:35.131Z,7.07
2018-03-22T17:29:03.018Z,6.83
2018-03-22T17:31:30.869Z,6.47
2018-03-22T17:33:58.691Z,5.70
2018-03-22T17:36:26.569Z,5.97
2018-03-22T17:38:54.474Z,6.23
2018-03-22T17:41:22.293Z,5.60
2018-03-22T17:43:50.130Z,6.00
2018-03-22T17:46:18.126Z,5.60
2018-03-22T17:48:46.001Z,5.83
2018-03-22T17:51:13.847Z,5.50
2018-03-22T17:53:41.697Z,6.17
2018-03-22T17:56:09.573Z,7.30
2018-03-22T17:58:37.431Z,7.60
2018-03-22T18:01:05.342Z,7.23
2018-03-22T18:03:33.184Z,7.93
2018-03-22T18:06:01.028Z,8.70
2018-03-22T18:08:28.924Z,8.20
2018-03-22T18:10:56.793Z,8.27
2018-03-22T18:13:24.653Z,8.30
2018-03-22T18:15:52.475Z,8.30
2018-03-22T18:18:20.354Z,8.70
2018-03-22T18:20:48.185Z,9.30
2018-03-22T18:23:16.033Z,8.57
2018-03-22T18:25:43.877Z,8.47
2018-03-22T18:28:11.717Z,9.70
2018-03-22T18:30:39.549Z,8.80
2018-03-22T18:33:08.008Z,9.20
2018-03-22T18:35:35.839Z,8.07
2018-03-22T18:38:03.739Z,8.83
2018-03-22T18:40:31.573Z,9.27
2018-03-22T18:42:59.404Z,9.53
2018-03-22T18:45:27.231Z,8.13
2018-03-22T18:47:55.064Z,9.23
2018-03-22T18:50:22.894Z,9.43
2018-03-22T18:52:50.733Z,9.67
2018-03-22T18:55:18.577Z,8.63
2018-03-22T18:57:46.411Z,8.43
2018-03-22T19:00:14.230Z,8.00
2018-03-22T19:02:42.071Z,8.60
2018-03-22T19:05:10.042Z,8.20
2018-03-22T19:07:37.872Z,8.10
2018-03-22T19:10:05.723Z,9.07
2018-03-22T19:12:33.553Z,9.00
2018-03-22T19:15:01.383Z,9.17
2018-03-22T19:17:29.227Z,7.90
2018-03-22T19:19:57.065Z,9.00
2018-03-22T19:22:24.917Z,8.63
2018-03-22T19:24:53.897Z,8.40
2018-03-22T19:27:22.732Z,8.97
2018-03-22T19:29:51.761Z,9.23
2018-03-22T19:32:20.601Z,8.30
2018-03-22T19:34:49.432Z,8.63
2018-03-22T19:37:18.262Z,7.70
2018-03-22T19:39:46.906Z,8.37
2018-03-22T19:42:15.745Z,8.47
2018-03-22T19:44:44.568Z,8.07
2018-03-22T19:47:13.592Z,8.53
2018-03-22T19:49:42.426Z,7.93
2018-03-22T19:52:11.455Z,8.33
2018-03-22T19:54:40.486Z,7.70
2018-03-22T19:57:09.325Z,8.90
2018-03-22T19:59:38.348Z,7.67
2018-03-22T20:02:07.020Z,9.83
2018-03-22T20:04:35.002Z,9.60
2018-03-22T20:07:02.913Z,8.63
2018-03-22T20:09:30.861Z,8.03
2018-03-22T20:11:58.850Z,7.97
2018-03-22T20:14:26.724Z,7.87
2018-03-22T20:16:54.552Z,8.50
2018-03-22T20:19:22.387Z,8.03
2018-03-22T20:21:50.227Z,7.63
2018-03-22T20:24:18.226Z,7.33
2018-03-22T20:26:46.066Z,6.90
2018-03-22T20:29:13.922Z,7.93
2018-03-22T20:31:41.753Z,7.70
2018-03-22T20:34:09.624Z,6.57
2018-03-22T20:36:38.477Z,7.53
2018-03-22T20:39:06.320Z,6.97
2018-03-22T20:41:34.527Z,7.47
2018-03-22T20:44:02.437Z,9.37
2018-03-22T20:46:30.318Z,7.20
2018-03-22T20:48:58.301Z,7.23
2018-03-22T20:51:26.150Z,6.97
2018-03-22T20:53:53.999Z,6.90
2018-03-22T20:56:21.831Z,7.67
2018-03-22T20:58:49.688Z,7.80
2018-03-22T21:01:17.598Z,6.97
2018-03-22T21:03:45.478Z,6.80
2018-03-22T21:06:13.320Z,6.80
2018-03-22T21:08:41.301Z,8.37
2018-03-22T21:11:09.131Z,6.30
2018-03-22T21:13:37.015Z,7.03
2018-03-22T21:16:05.045Z,6.23
2018-03-22T21:18:32.877Z,7.53
2018-03-22T21:21:00.705Z,7.50
2018-03-22T21:23:28.598Z,6.80
2018-03-22T21:25:56.469Z,6.93
2018-03-22T21:28:24.341Z,7.00
2018-03-22T21:30:52.159Z,6.77
2018-03-22T21:33:19.986Z,6.53
2018-03-22T21:35:47.822Z,6.63
2018-03-22T21:38:15.651Z,7.20
2018-03-22T21:40:43.561Z,6.40
2018-03-22T21:43:11.394Z,7.07
2018-03-22T21:45:39.337Z,7.90
2018-03-22T21:48:07.198Z,5.93
2018-03-22T21:50:40.850Z,7.50
2018-03-22T21:53:08.759Z,6.63
2018-03-22T21:55:36.583Z,7.40
2018-03-22T21:58:04.430Z,8.67
2018-03-22T22:00:32.270Z,7.60
2018-03-22T22:03:00.088Z,7.60
2018-03-22T22:05:27.847Z,7.10
2018-03-22T22:07:55.494Z,7.17
2018-03-22T22:10:23.018Z,7.53
2018-03-22T22:12:50.539Z,6.13
2018-03-22T22:15:18.038Z,7.47
2018-03-22T22:17:45.569Z,7.13
2018-03-22T22:20:13.043Z,7.43
2018-03-22T22:22:40.540Z,7.63
2018-03-22T22:25:08.052Z,6.97
2018-03-22T22:27:35.533Z,7.87
2018-03-22T22:30:03.276Z,7.00
2018-03-22T22:32:30.770Z,7.33
2018-03-22T22:34:58.259Z,7.33
2018-03-22T22:37:25.781Z,7.83
2018-03-22T22:39:53.261Z,7.77
2018-03-22T22:42:20.821Z,7.77
2018-03-22T22:44:48.349Z,7.10
2018-03-22T22:47:15.827Z,6.80
2018-03-22T22:49:43.620Z,6.50
2018-03-22T22:52:11.108Z,8.03
2018-03-22T22:54:38.602Z,7.43
2018-03-22T22:57:06.109Z,7.10
2018-03-22T22:59:33.602Z,7.25
2018-03-22T23:02:01.094Z,7.55
2018-03-22T23:04:28.609Z,7.57
2018-03-22T23:06:56.114Z,7.65
2018-03-22T23:09:23.634Z,7.32
2018-03-22T23:11:51.147Z,7.97
2018-03-22T23:14:18.649Z,7.93
2018-03-22T23:16:46.145Z,6.40
2018-03-22T23:19:13.684Z,7.45
2018-03-22T23:21:41.238Z,8.03
2018-03-22T23:24:08.753Z,7.80
2018-03-22T23:26:36.290Z,7.07
2018-03-22T23:29:03.793Z,7.17
2018-03-22T23:31:31.277Z,7.70
2018-03-22T23:33:58.781Z,8.50
2018-03-22T23:36:26.290Z,8.15
2018-03-22T23:38:53.806Z,7.62
2018-03-22T23:41:21.350Z,8.07
2018-03-22T23:43:48.939Z,7.50
2018-03-22T23:46:16.459Z,8.52
2018-03-22T23:48:43.966Z,7.10
2018-03-22T23:51:11.499Z,7.80
2018-03-22T23:53:39.611Z,8.23
2018-03-22T23:56:07.186Z,8.00
2018-03-22T23:58:34.787Z,7.45
